sensor_id;sensor_type;location;lat;lon;timestamp;P1;durP1;ratioP1;P2;durP2;ratioP2
72422;SDS011;71399;54.146;38.734;2024-02-14T00:00:54;12.38;;;5.30;;
72422;SDS011;71399;54.146;38.734;2024-02-14T00:03:21;14.00;;;4.90;;
72422;SDS011;71399;54.146;38.734;2024-02-14T00:05:49;15.88;;;4.93;;
72422;SDS011;71399;54.146;38.734;2024-02-14T00:08:15;10.60;;;4.35;;
72422;SDS011;71399;54.146;38.734;2024-02-14T00:10:42;12.93;;;3.75;;
72422;SDS011;71399;54.146;38.734;2024-02-14T00:13:10;15.10;;;4.80;;
72422;SDS011;71399;54.146;38.734;2024-02-14T00:15:37;13.40;;;3.90;;
72422;SDS011;71399;54.146;38.734;2024-02-14T00:18:04;10.73;;;3.80;;
72422;SDS011;71399;54.146;38.734;2024-02-14T00:20:30;9.02;;;4.40;;
72422;SDS011;71399;54.146;38.734;2024-02-14T00:23:01;11.60;;;4.10;;
72422;SDS011;71399;54.146;38.734;2024-02-14T00:25:28;11.25;;;3.70;;
72422;SDS011;71399;54.146;38.734;2024-02-14T00:27:59;8.35;;;3.25;;
72422;SDS011;71399;54.146;38.734;2024-02-14T00:30:27;11.55;;;4.57;;
72422;SDS011;71399;54.146;38.734;2024-02-14T00:33:22;9.90;;;3.67;;
72422;SDS011;71399;54.146;38.734;2024-02-14T00:35:48;15.23;;;4.25;;
72422;SDS011;71399;54.146;38.734;2024-02-14T00:38:15;10.57;;;4.78;;
72422;SDS011;71399;54.146;38.734;2024-02-14T00:40:41;11.90;;;5.10;;
72422;SDS011;71399;54.146;38.734;2024-02-14T00:43:08;8.82;;;4.38;;
72422;SDS011;71399;54.146;38.734;2024-02-14T00:45:35;10.70;;;4.53;;
72422;SDS011;71399;54.146;38.734;2024-02-14T00:48:04;11.68;;;3.92;;
72422;SDS011;71399;54.146;38.734;2024-02-14T00:50:31;13.00;;;3.85;;
72422;SDS011;71399;54.146;38.734;2024-02-14T00:52:59;11.13;;;3.95;;
72422;SDS011;71399;54.146;38.734;2024-02-14T00:55:26;14.13;;;4.68;;
72422;SDS011;71399;54.146;38.734;2024-02-14T00:57:52;10.00;;;4.05;;
72422;SDS011;71399;54.146;38.734;2024-02-14T01:00:20;12.98;;;4.20;;
72422;SDS011;71399;54.146;38.734;2024-02-14T01:02:46;13.25;;;4.63;;
72422;SDS011;71399;54.146;38.734;2024-02-14T01:05:12;11.25;;;4.35;;
72422;SDS011;71399;54.146;38.734;2024-02-14T01:07:39;12.93;;;4.95;;
72422;SDS011;71399;54.146;38.734;2024-02-14T01:10:06;15.73;;;4.85;;
72422;SDS011;71399;54.146;38.734;2024-02-14T01:12:35;7.90;;;3.20;;
72422;SDS011;71399;54.146;38.734;2024-02-14T01:15:01;11.07;;;4.15;;
72422;SDS011;71399;54.146;38.734;2024-02-14T01:17:35;9.68;;;4.60;;
72422;SDS011;71399;54.146;38.734;2024-02-14T01:20:02;13.05;;;5.05;;
72422;SDS011;71399;54.146;38.734;2024-02-14T01:22:32;12.10;;;5.10;;
72422;SDS011;71399;54.146;38.734;2024-02-14T01:25:17;11.38;;;5.15;;
72422;SDS011;71399;54.146;38.734;2024-02-14T01:27:43;13.32;;;5.38;;
72422;SDS011;71399;54.146;38.734;2024-02-14T01:30:10;13.43;;;5.28;;
72422;SDS011;71399;54.146;38.734;2024-02-14T01:32:37;9.35;;;4.57;;
72422;SDS011;71399;54.146;38.734;2024-02-14T01:35:04;11.15;;;4.40;;
72422;SDS011;71399;54.146;38.734;2024-02-14T01:37:33;11.10;;;4.50;;
72422;SDS011;71399;54.146;38.734;2024-02-14T01:40:00;7.90;;;4.10;;
72422;SDS011;71399;54.146;38.734;2024-02-14T01:42:30;9.15;;;5.18;;
72422;SDS011;71399;54.146;38.734;2024-02-14T01:44:57;13.50;;;5.30;;
72422;SDS011;71399;54.146;38.734;2024-02-14T01:47:23;12.43;;;5.28;;
72422;SDS011;71399;54.146;38.734;2024-02-14T01:49:50;13.00;;;5.20;;
72422;SDS011;71399;54.146;38.734;2024-02-14T01:52:16;15.30;;;5.07;;
72422;SDS011;71399;54.146;38.734;2024-02-14T01:54:43;16.20;;;5.82;;
72422;SDS011;71399;54.146;38.734;2024-02-14T01:57:10;13.77;;;5.38;;
72422;SDS011;71399;54.146;38.734;2024-02-14T01:59:37;12.63;;;5.18;;
72422;SDS011;71399;54.146;38.734;2024-02-14T02:02:04;10.43;;;4.10;;
72422;SDS011;71399;54.146;38.734;2024-02-14T02:04:33;12.75;;;5.57;;
72422;SDS011;71399;54.146;38.734;2024-02-14T02:07:01;11.30;;;5.03;;
72422;SDS011;71399;54.146;38.734;2024-02-14T02:09:27;13.02;;;5.65;;
72422;SDS011;71399;54.146;38.734;2024-02-14T02:11:54;14.10;;;5.80;;
72422;SDS011;71399;54.146;38.734;2024-02-14T02:14:41;13.65;;;6.05;;
72422;SDS011;71399;54.146;38.734;2024-02-14T02:17:27;13.02;;;5.72;;
72422;SDS011;71399;54.146;38.734;2024-02-14T02:20:13;17.77;;;5.68;;
72422;SDS011;71399;54.146;38.734;2024-02-14T02:22:45;12.73;;;5.35;;
72422;SDS011;71399;54.146;38.734;2024-02-14T02:25:33;16.98;;;6.43;;
72422;SDS011;71399;54.146;38.734;2024-02-14T02:28:19;15.25;;;6.13;;
72422;SDS011;71399;54.146;38.734;2024-02-14T02:30:50;17.05;;;5.40;;
72422;SDS011;71399;54.146;38.734;2024-02-14T02:33:21;15.48;;;5.75;;
72422;SDS011;71399;54.146;38.734;2024-02-14T02:35:50;12.38;;;4.88;;
72422;SDS011;71399;54.146;38.734;2024-02-14T02:38:37;12.45;;;5.15;;
72422;SDS011;71399;54.146;38.734;2024-02-14T02:41:23;11.65;;;4.50;;
72422;SDS011;71399;54.146;38.734;2024-02-14T02:44:10;15.38;;;5.43;;
72422;SDS011;71399;54.146;38.734;2024-02-14T02:47:02;12.82;;;5.72;;
72422;SDS011;71399;54.146;38.734;2024-02-14T02:49:48;13.63;;;5.15;;
72422;SDS011;71399;54.146;38.734;2024-02-14T02:52:35;11.57;;;4.90;;
72422;SDS011;71399;54.146;38.734;2024-02-14T02:55:21;12.20;;;5.13;;
72422;SDS011;71399;54.146;38.734;2024-02-14T02:58:00;15.73;;;5.45;;
72422;SDS011;71399;54.146;38.734;2024-02-14T03:00:27;11.68;;;5.40;;
72422;SDS011;71399;54.146;38.734;2024-02-14T03:03:13;11.88;;;4.32;;
72422;SDS011;71399;54.146;38.734;2024-02-14T03:05:59;11.55;;;4.72;;
72422;SDS011;71399;54.146;38.734;2024-02-14T03:08:45;13.23;;;5.07;;
72422;SDS011;71399;54.146;38.734;2024-02-14T03:11:31;8.85;;;3.60;;
72422;SDS011;71399;54.146;38.734;2024-02-14T03:14:17;10.52;;;4.57;;
72422;SDS011;71399;54.146;38.734;2024-02-14T03:17:03;12.77;;;5.28;;
72422;SDS011;71399;54.146;38.734;2024-02-14T03:19:30;13.35;;;5.05;;
72422;SDS011;71399;54.146;38.734;2024-02-14T03:21:59;12.57;;;5.63;;
72422;SDS011;71399;54.146;38.734;2024-02-14T03:24:25;9.32;;;4.57;;
72422;SDS011;71399;54.146;38.734;2024-02-14T03:26:52;12.02;;;4.35;;
72422;SDS011;71399;54.146;38.734;2024-02-14T03:29:19;15.50;;;5.65;;
72422;SDS011;71399;54.146;38.734;2024-02-14T03:31:46;13.68;;;5.28;;
72422;SDS011;71399;54.146;38.734;2024-02-14T03:34:13;10.95;;;5.35;;
72422;SDS011;71399;54.146;38.734;2024-02-14T03:36:40;11.73;;;4.78;;
72422;SDS011;71399;54.146;38.734;2024-02-14T03:39:06;10.23;;;5.18;;
72422;SDS011;71399;54.146;38.734;2024-02-14T03:41:32;7.65;;;3.22;;
72422;SDS011;71399;54.146;38.734;2024-02-14T03:43:59;9.77;;;4.57;;
72422;SDS011;71399;54.146;38.734;2024-02-14T03:46:27;11.23;;;5.10;;
72422;SDS011;71399;54.146;38.734;2024-02-14T03:48:54;12.80;;;5.28;;
72422;SDS011;71399;54.146;38.734;2024-02-14T03:51:22;12.23;;;4.95;;
72422;SDS011;71399;54.146;38.734;2024-02-14T03:53:50;13.90;;;5.18;;
72422;SDS011;71399;54.146;38.734;2024-02-14T03:56:16;15.90;;;5.85;;
72422;SDS011;71399;54.146;38.734;2024-02-14T03:58:43;10.90;;;5.05;;
72422;SDS011;71399;54.146;38.734;2024-02-14T04:01:09;15.05;;;5.35;;
72422;SDS011;71399;54.146;38.734;2024-02-14T04:03:35;10.88;;;4.53;;
72422;SDS011;71399;54.146;38.734;2024-02-14T04:06:02;11.32;;;4.50;;
72422;SDS011;71399;54.146;38.734;2024-02-14T04:08:28;15.40;;;4.95;;
72422;SDS011;71399;54.146;38.734;2024-02-14T04:10:55;12.32;;;4.82;;
72422;SDS011;71399;54.146;38.734;2024-02-14T04:13:22;13.50;;;5.57;;
72422;SDS011;71399;54.146;38.734;2024-02-14T04:15:48;12.40;;;5.15;;
72422;SDS011;71399;54.146;38.734;2024-02-14T04:18:32;14.85;;;6.72;;
72422;SDS011;71399;54.146;38.734;2024-02-14T04:20:59;12.23;;;5.15;;
72422;SDS011;71399;54.146;38.734;2024-02-14T04:23:25;12.70;;;5.05;;
72422;SDS011;71399;54.146;38.734;2024-02-14T04:25:52;19.10;;;6.55;;
72422;SDS011;71399;54.146;38.734;2024-02-14T04:28:18;10.18;;;4.13;;
72422;SDS011;71399;54.146;38.734;2024-02-14T04:30:44;12.50;;;4.65;;
72422;SDS011;71399;54.146;38.734;2024-02-14T04:33:24;11.95;;;5.05;;
72422;SDS011;71399;54.146;38.734;2024-02-14T04:35:51;13.07;;;5.15;;
72422;SDS011;71399;54.146;38.734;2024-02-14T04:38:17;12.57;;;4.25;;
72422;SDS011;71399;54.146;38.734;2024-02-14T04:40:45;13.73;;;4.78;;
72422;SDS011;71399;54.146;38.734;2024-02-14T04:43:11;10.93;;;4.03;;
72422;SDS011;71399;54.146;38.734;2024-02-14T04:45:38;13.45;;;4.30;;
72422;SDS011;71399;54.146;38.734;2024-02-14T04:48:14;11.25;;;5.47;;
72422;SDS011;71399;54.146;38.734;2024-02-14T04:50:40;8.77;;;4.30;;
72422;SDS011;71399;54.146;38.734;2024-02-14T04:53:07;10.55;;;4.20;;
72422;SDS011;71399;54.146;38.734;2024-02-14T04:55:33;10.82;;;4.45;;
72422;SDS011;71399;54.146;38.734;2024-02-14T04:58:00;12.88;;;5.20;;
72422;SDS011;71399;54.146;38.734;2024-02-14T05:00:26;13.95;;;5.25;;
72422;SDS011;71399;54.146;38.734;2024-02-14T05:02:53;10.80;;;4.90;;
72422;SDS011;71399;54.146;38.734;2024-02-14T05:05:19;14.18;;;5.20;;
72422;SDS011;71399;54.146;38.734;2024-02-14T05:07:57;11.40;;;4.55;;
72422;SDS011;71399;54.146;38.734;2024-02-14T05:10:24;14.60;;;4.45;;
72422;SDS011;71399;54.146;38.734;2024-02-14T05:12:51;14.40;;;4.95;;
72422;SDS011;71399;54.146;38.734;2024-02-14T05:15:17;10.80;;;3.47;;
72422;SDS011;71399;54.146;38.734;2024-02-14T05:17:44;13.48;;;5.15;;
72422;SDS011;71399;54.146;38.734;2024-02-14T05:20:11;16.75;;;5.20;;
72422;SDS011;71399;54.146;38.734;2024-02-14T05:22:38;10.48;;;4.82;;
72422;SDS011;71399;54.146;38.734;2024-02-14T05:25:05;9.63;;;3.90;;
72422;SDS011;71399;54.146;38.734;2024-02-14T05:27:50;13.82;;;4.82;;
72422;SDS011;71399;54.146;38.734;2024-02-14T05:30:16;8.75;;;3.80;;
72422;SDS011;71399;54.146;38.734;2024-02-14T05:32:57;9.85;;;4.18;;
72422;SDS011;71399;54.146;38.734;2024-02-14T05:35:23;10.15;;;3.97;;
72422;SDS011;71399;54.146;38.734;2024-02-14T05:37:50;8.23;;;2.97;;
72422;SDS011;71399;54.146;38.734;2024-02-14T05:40:17;10.02;;;3.50;;
72422;SDS011;71399;54.146;38.734;2024-02-14T05:42:44;8.98;;;4.13;;
72422;SDS011;71399;54.146;38.734;2024-02-14T05:45:11;9.43;;;4.05;;
72422;SDS011;71399;54.146;38.734;2024-02-14T05:47:37;12.63;;;4.15;;
72422;SDS011;71399;54.146;38.734;2024-02-14T05:50:05;8.50;;;3.70;;
72422;SDS011;71399;54.146;38.734;2024-02-14T05:52:35;8.02;;;3.72;;
72422;SDS011;71399;54.146;38.734;2024-02-14T05:55:02;6.72;;;3.90;;
72422;SDS011;71399;54.146;38.734;2024-02-14T05:57:33;10.82;;;4.45;;
72422;SDS011;71399;54.146;38.734;2024-02-14T05:59:59;12.30;;;3.78;;
72422;SDS011;71399;54.146;38.734;2024-02-14T06:02:26;13.65;;;5.25;;
72422;SDS011;71399;54.146;38.734;2024-02-14T06:04:52;9.95;;;5.18;;
72422;SDS011;71399;54.146;38.734;2024-02-14T06:07:18;10.63;;;3.63;;
72422;SDS011;71399;54.146;38.734;2024-02-14T06:09:45;10.55;;;3.90;;
72422;SDS011;71399;54.146;38.734;2024-02-14T06:12:11;13.35;;;4.40;;
72422;SDS011;71399;54.146;38.734;2024-02-14T06:14:38;9.07;;;3.30;;
72422;SDS011;71399;54.146;38.734;2024-02-14T06:17:05;10.35;;;4.28;;
72422;SDS011;71399;54.146;38.734;2024-02-14T06:19:31;8.88;;;4.13;;
72422;SDS011;71399;54.146;38.734;2024-02-14T06:21:59;8.95;;;4.10;;
72422;SDS011;71399;54.146;38.734;2024-02-14T06:24:25;10.63;;;3.35;;
72422;SDS011;71399;54.146;38.734;2024-02-14T06:26:51;8.75;;;4.05;;
72422;SDS011;71399;54.146;38.734;2024-02-14T06:29:17;6.47;;;3.17;;
72422;SDS011;71399;54.146;38.734;2024-02-14T06:31:44;9.15;;;3.90;;
72422;SDS011;71399;54.146;38.734;2024-02-14T06:34:10;7.93;;;3.50;;
72422;SDS011;71399;54.146;38.734;2024-02-14T06:36:36;8.90;;;3.90;;
72422;SDS011;71399;54.146;38.734;2024-02-14T06:39:02;9.93;;;3.95;;
72422;SDS011;71399;54.146;38.734;2024-02-14T06:41:30;7.82;;;3.33;;
72422;SDS011;71399;54.146;38.734;2024-02-14T06:43:57;5.13;;;2.70;;
72422;SDS011;71399;54.146;38.734;2024-02-14T06:46:23;14.80;;;4.18;;
72422;SDS011;71399;54.146;38.734;2024-02-14T06:48:50;10.90;;;3.55;;
72422;SDS011;71399;54.146;38.734;2024-02-14T06:51:16;7.05;;;3.53;;
72422;SDS011;71399;54.146;38.734;2024-02-14T06:53:43;9.52;;;4.30;;
72422;SDS011;71399;54.146;38.734;2024-02-14T06:56:09;17.40;;;4.75;;
72422;SDS011;71399;54.146;38.734;2024-02-14T06:58:35;9.15;;;3.88;;
72422;SDS011;71399;54.146;38.734;2024-02-14T07:01:02;7.80;;;3.75;;
72422;SDS011;71399;54.146;38.734;2024-02-14T07:03:29;10.52;;;4.43;;
72422;SDS011;71399;54.146;38.734;2024-02-14T07:05:55;9.48;;;3.97;;
72422;SDS011;71399;54.146;38.734;2024-02-14T07:08:21;10.77;;;3.83;;
72422;SDS011;71399;54.146;38.734;2024-02-14T07:10:49;10.43;;;3.75;;
72422;SDS011;71399;54.146;38.734;2024-02-14T07:13:15;8.15;;;3.30;;
72422;SDS011;71399;54.146;38.734;2024-02-14T07:15:42;7.72;;;3.42;;
72422;SDS011;71399;54.146;38.734;2024-02-14T07:18:08;8.10;;;3.95;;
72422;SDS011;71399;54.146;38.734;2024-02-14T07:20:35;9.35;;;3.83;;
72422;SDS011;71399;54.146;38.734;2024-02-14T07:23:02;10.43;;;4.05;;
72422;SDS011;71399;54.146;38.734;2024-02-14T07:25:29;9.60;;;4.20;;
72422;SDS011;71399;54.146;38.734;2024-02-14T07:27:56;10.10;;;4.13;;
72422;SDS011;71399;54.146;38.734;2024-02-14T07:30:22;9.38;;;3.70;;
72422;SDS011;71399;54.146;38.734;2024-02-14T07:32:48;14.18;;;4.25;;
72422;SDS011;71399;54.146;38.734;2024-02-14T07:35:16;8.27;;;3.58;;
72422;SDS011;71399;54.146;38.734;2024-02-14T07:37:43;11.48;;;4.35;;
72422;SDS011;71399;54.146;38.734;2024-02-14T07:40:10;9.90;;;3.95;;
72422;SDS011;71399;54.146;38.734;2024-02-14T07:42:57;8.88;;;3.35;;
72422;SDS011;71399;54.146;38.734;2024-02-14T07:45:23;7.47;;;3.42;;
72422;SDS011;71399;54.146;38.734;2024-02-14T07:47:50;9.15;;;3.78;;
72422;SDS011;71399;54.146;38.734;2024-02-14T07:50:16;7.65;;;2.88;;
72422;SDS011;71399;54.146;38.734;2024-02-14T07:52:43;7.93;;;3.95;;
72422;SDS011;71399;54.146;38.734;2024-02-14T07:55:10;8.95;;;4.20;;
72422;SDS011;71399;54.146;38.734;2024-02-14T07:57:44;10.38;;;3.53;;
72422;SDS011;71399;54.146;38.734;2024-02-14T08:00:10;12.60;;;4.50;;
72422;SDS011;71399;54.146;38.734;2024-02-14T08:02:38;10.30;;;4.15;;
72422;SDS011;71399;54.146;38.734;2024-02-14T08:05:04;12.07;;;3.97;;
72422;SDS011;71399;54.146;38.734;2024-02-14T08:07:30;8.02;;;3.40;;
72422;SDS011;71399;54.146;38.734;2024-02-14T08:09:57;8.48;;;3.90;;
72422;SDS011;71399;54.146;38.734;2024-02-14T08:12:23;7.40;;;3.78;;
72422;SDS011;71399;54.146;38.734;2024-02-14T08:14:51;9.82;;;3.40;;
72422;SDS011;71399;54.146;38.734;2024-02-14T08:17:18;9.82;;;3.70;;
72422;SDS011;71399;54.146;38.734;2024-02-14T08:19:44;8.15;;;4.10;;
72422;SDS011;71399;54.146;38.734;2024-02-14T08:22:10;7.97;;;4.25;;
72422;SDS011;71399;54.146;38.734;2024-02-14T08:24:38;8.38;;;3.83;;
72422;SDS011;71399;54.146;38.734;2024-02-14T08:27:04;11.35;;;3.58;;
72422;SDS011;71399;54.146;38.734;2024-02-14T08:29:33;10.10;;;3.22;;
72422;SDS011;71399;54.146;38.734;2024-02-14T08:31:59;12.52;;;4.00;;
72422;SDS011;71399;54.146;38.734;2024-02-14T08:34:26;5.07;;;2.60;;
72422;SDS011;71399;54.146;38.734;2024-02-14T08:36:53;10.82;;;4.18;;
72422;SDS011;71399;54.146;38.734;2024-02-14T08:39:19;7.40;;;3.22;;
72422;SDS011;71399;54.146;38.734;2024-02-14T08:41:45;11.07;;;3.85;;
72422;SDS011;71399;54.146;38.734;2024-02-14T08:44:13;10.25;;;3.92;;
72422;SDS011;71399;54.146;38.734;2024-02-14T08:46:39;7.57;;;3.10;;
72422;SDS011;71399;54.146;38.734;2024-02-14T08:49:08;7.28;;;3.00;;
72422;SDS011;71399;54.146;38.734;2024-02-14T08:51:35;10.43;;;4.28;;
72422;SDS011;71399;54.146;38.734;2024-02-14T08:54:05;10.07;;;3.97;;
72422;SDS011;71399;54.146;38.734;2024-02-14T08:56:32;9.68;;;3.70;;
72422;SDS011;71399;54.146;38.734;2024-02-14T08:59:00;7.70;;;3.50;;
72422;SDS011;71399;54.146;38.734;2024-02-14T09:01:29;8.18;;;3.72;;
72422;SDS011;71399;54.146;38.734;2024-02-14T09:03:56;5.53;;;2.85;;
72422;SDS011;71399;54.146;38.734;2024-02-14T09:06:23;9.60;;;3.53;;
72422;SDS011;71399;54.146;38.734;2024-02-14T09:08:49;9.48;;;4.10;;
72422;SDS011;71399;54.146;38.734;2024-02-14T09:11:19;11.68;;;2.83;;
72422;SDS011;71399;54.146;38.734;2024-02-14T09:13:46;6.95;;;3.30;;
72422;SDS011;71399;54.146;38.734;2024-02-14T09:16:19;8.18;;;3.60;;
72422;SDS011;71399;54.146;38.734;2024-02-14T09:18:47;7.70;;;3.65;;
72422;SDS011;71399;54.146;38.734;2024-02-14T09:21:14;10.88;;;3.38;;
72422;SDS011;71399;54.146;38.734;2024-02-14T09:23:41;8.68;;;3.55;;
72422;SDS011;71399;54.146;38.734;2024-02-14T09:26:07;6.47;;;3.47;;
72422;SDS011;71399;54.146;38.734;2024-02-14T09:28:34;8.60;;;3.25;;
72422;SDS011;71399;54.146;38.734;2024-02-14T09:31:01;9.35;;;3.17;;
72422;SDS011;71399;54.146;38.734;2024-02-14T09:33:29;9.15;;;4.05;;
72422;SDS011;71399;54.146;38.734;2024-02-14T09:35:56;7.47;;;3.22;;
72422;SDS011;71399;54.146;38.734;2024-02-14T09:38:22;7.68;;;3.40;;
72422;SDS011;71399;54.146;38.734;2024-02-14T09:40:50;9.95;;;3.75;;
72422;SDS011;71399;54.146;38.734;2024-02-14T09:43:31;7.47;;;3.85;;
72422;SDS011;71399;54.146;38.734;2024-02-14T09:46:01;8.52;;;3.45;;
72422;SDS011;71399;54.146;38.734;2024-02-14T09:48:29;6.43;;;2.88;;
72422;SDS011;71399;54.146;38.734;2024-02-14T09:50:56;8.50;;;3.33;;
72422;SDS011;71399;54.146;38.734;2024-02-14T09:53:23;9.65;;;3.53;;
72422;SDS011;71399;54.146;38.734;2024-02-14T09:55:49;7.35;;;3.35;;
72422;SDS011;71399;54.146;38.734;2024-02-14T09:58:16;8.75;;;3.00;;
72422;SDS011;71399;54.146;38.734;2024-02-14T10:00:43;13.50;;;3.53;;
72422;SDS011;71399;54.146;38.734;2024-02-14T10:03:09;9.38;;;3.88;;
72422;SDS011;71399;54.146;38.734;2024-02-14T10:05:37;10.13;;;3.83;;
72422;SDS011;71399;54.146;38.734;2024-02-14T10:08:03;9.05;;;3.17;;
72422;SDS011;71399;54.146;38.734;2024-02-14T10:10:33;7.50;;;3.03;;
72422;SDS011;71399;54.146;38.734;2024-02-14T10:13:03;9.15;;;3.38;;
72422;SDS011;71399;54.146;38.734;2024-02-14T10:15:31;7.95;;;3.22;;
72422;SDS011;71399;54.146;38.734;2024-02-14T10:18:04;8.23;;;3.47;;
72422;SDS011;71399;54.146;38.734;2024-02-14T10:20:30;7.32;;;3.47;;
72422;SDS011;71399;54.146;38.734;2024-02-14T10:23:03;6.45;;;2.85;;
72422;SDS011;71399;54.146;38.734;2024-02-14T10:25:29;12.05;;;4.22;;
72422;SDS011;71399;54.146;38.734;2024-02-14T10:27:57;6.22;;;2.85;;
72422;SDS011;71399;54.146;38.734;2024-02-14T10:30:29;12.73;;;3.33;;
72422;SDS011;71399;54.146;38.734;2024-02-14T10:32:55;10.27;;;3.50;;
72422;SDS011;71399;54.146;38.734;2024-02-14T10:35:25;8.77;;;3.28;;
72422;SDS011;71399;54.146;38.734;2024-02-14T10:37:51;6.45;;;3.00;;
72422;SDS011;71399;54.146;38.734;2024-02-14T10:40:19;13.75;;;3.92;;
72422;SDS011;71399;54.146;38.734;2024-02-14T10:42:46;6.65;;;3.55;;
72422;SDS011;71399;54.146;38.734;2024-02-14T10:45:13;8.23;;;3.67;;
72422;SDS011;71399;54.146;38.734;2024-02-14T10:47:50;7.80;;;3.33;;
72422;SDS011;71399;54.146;38.734;2024-02-14T10:50:18;6.53;;;2.95;;
72422;SDS011;71399;54.146;38.734;2024-02-14T10:52:48;11.02;;;4.07;;
72422;SDS011;71399;54.146;38.734;2024-02-14T10:55:15;7.25;;;2.65;;
72422;SDS011;71399;54.146;38.734;2024-02-14T10:57:44;8.13;;;3.03;;
72422;SDS011;71399;54.146;38.734;2024-02-14T11:00:12;11.15;;;3.85;;
72422;SDS011;71399;54.146;38.734;2024-02-14T11:02:41;6.93;;;3.60;;
72422;SDS011;71399;54.146;38.734;2024-02-14T11:05:14;8.15;;;3.72;;
72422;SDS011;71399;54.146;38.734;2024-02-14T11:07:45;8.18;;;2.78;;
72422;SDS011;71399;54.146;38.734;2024-02-14T11:10:13;6.35;;;2.63;;
72422;SDS011;71399;54.146;38.734;2024-02-14T11:12:41;9.40;;;3.80;;
72422;SDS011;71399;54.146;38.734;2024-02-14T11:15:17;5.72;;;3.13;;
72422;SDS011;71399;54.146;38.734;2024-02-14T11:17:50;11.68;;;2.95;;
72422;SDS011;71399;54.146;38.734;2024-02-14T11:20:20;10.00;;;3.67;;
72422;SDS011;71399;54.146;38.734;2024-02-14T11:22:57;12.32;;;3.85;;
72422;SDS011;71399;54.146;38.734;2024-02-14T11:25:29;6.90;;;3.75;;
72422;SDS011;71399;54.146;38.734;2024-02-14T11:27:58;10.10;;;3.88;;
72422;SDS011;71399;54.146;38.734;2024-02-14T11:30:34;7.82;;;3.50;;
72422;SDS011;71399;54.146;38.734;2024-02-14T11:33:12;5.22;;;2.83;;
72422;SDS011;71399;54.146;38.734;2024-02-14T11:35:44;7.65;;;2.97;;
72422;SDS011;71399;54.146;38.734;2024-02-14T11:38:20;8.75;;;3.13;;
72422;SDS011;71399;54.146;38.734;2024-02-14T11:40:47;8.13;;;2.90;;
72422;SDS011;71399;54.146;38.734;2024-02-14T11:43:20;8.45;;;3.17;;
72422;SDS011;71399;54.146;38.734;2024-02-14T11:45:47;11.32;;;3.05;;
72422;SDS011;71399;54.146;38.734;2024-02-14T11:48:18;6.70;;;2.90;;
72422;SDS011;71399;54.146;38.734;2024-02-14T11:50:52;6.83;;;2.83;;
72422;SDS011;71399;54.146;38.734;2024-02-14T11:53:21;9.15;;;3.05;;
72422;SDS011;71399;54.146;38.734;2024-02-14T11:55:47;13.10;;;2.90;;
72422;SDS011;71399;54.146;38.734;2024-02-14T11:58:16;5.90;;;2.85;;
72422;SDS011;71399;54.146;38.734;2024-02-14T12:00:44;6.80;;;3.50;;
72422;SDS011;71399;54.146;38.734;2024-02-14T12:03:33;6.78;;;2.90;;
72422;SDS011;71399;54.146;38.734;2024-02-14T12:05:58;7.45;;;3.00;;
72422;SDS011;71399;54.146;38.734;2024-02-14T12:08:25;4.13;;;2.42;;
72422;SDS011;71399;54.146;38.734;2024-02-14T12:10:52;8.40;;;3.85;;
72422;SDS011;71399;54.146;38.734;2024-02-14T12:13:20;10.10;;;3.70;;
72422;SDS011;71399;54.146;38.734;2024-02-14T12:15:48;5.53;;;2.70;;
72422;SDS011;71399;54.146;38.734;2024-02-14T12:18:16;11.73;;;3.78;;
72422;SDS011;71399;54.146;38.734;2024-02-14T12:20:46;8.48;;;3.55;;
72422;SDS011;71399;54.146;38.734;2024-02-14T12:23:16;11.02;;;3.95;;
72422;SDS011;71399;54.146;38.734;2024-02-14T12:25:47;8.85;;;3.70;;
72422;SDS011;71399;54.146;38.734;2024-02-14T12:28:17;11.73;;;3.90;;
72422;SDS011;71399;54.146;38.734;2024-02-14T12:30:45;7.38;;;3.42;;
72422;SDS011;71399;54.146;38.734;2024-02-14T12:33:22;6.50;;;3.08;;
72422;SDS011;71399;54.146;38.734;2024-02-14T12:35:50;9.82;;;3.72;;
72422;SDS011;71399;54.146;38.734;2024-02-14T12:38:18;9.40;;;3.63;;
72422;SDS011;71399;54.146;38.734;2024-02-14T12:40:45;10.75;;;3.47;;
72422;SDS011;71399;54.146;38.734;2024-02-14T12:43:12;7.20;;;3.10;;
72422;SDS011;71399;54.146;38.734;2024-02-14T12:45:40;9.52;;;3.72;;
72422;SDS011;71399;54.146;38.734;2024-02-14T12:48:08;7.68;;;3.50;;
72422;SDS011;71399;54.146;38.734;2024-02-14T12:50:35;6.57;;;3.28;;
72422;SDS011;71399;54.146;38.734;2024-02-14T12:53:10;5.50;;;2.78;;
72422;SDS011;71399;54.146;38.734;2024-02-14T12:55:36;9.02;;;3.65;;
72422;SDS011;71399;54.146;38.734;2024-02-14T12:58:03;16.67;;;5.07;;
72422;SDS011;71399;54.146;38.734;2024-02-14T13:00:30;7.65;;;3.35;;
72422;SDS011;71399;54.146;38.734;2024-02-14T13:02:59;8.73;;;3.50;;
72422;SDS011;71399;54.146;38.734;2024-02-14T13:05:26;11.77;;;3.63;;
72422;SDS011;71399;54.146;38.734;2024-02-14T13:07:53;11.45;;;3.90;;
72422;SDS011;71399;54.146;38.734;2024-02-14T13:10:19;10.57;;;3.60;;
72422;SDS011;71399;54.146;38.734;2024-02-14T13:12:46;9.15;;;3.67;;
72422;SDS011;71399;54.146;38.734;2024-02-14T13:15:12;12.63;;;3.60;;
72422;SDS011;71399;54.146;38.734;2024-02-14T13:17:38;9.00;;;3.90;;
72422;SDS011;71399;54.146;38.734;2024-02-14T13:20:04;7.55;;;3.72;;
72422;SDS011;71399;54.146;38.734;2024-02-14T13:22:31;9.95;;;4.05;;
72422;SDS011;71399;54.146;38.734;2024-02-14T13:24:58;8.88;;;4.07;;
72422;SDS011;71399;54.146;38.734;2024-02-14T13:27:26;14.63;;;4.00;;
72422;SDS011;71399;54.146;38.734;2024-02-14T13:29:53;8.05;;;3.40;;
72422;SDS011;71399;54.146;38.734;2024-02-14T13:32:19;8.93;;;4.03;;
72422;SDS011;71399;54.146;38.734;2024-02-14T13:34:45;8.80;;;3.35;;
72422;SDS011;71399;54.146;38.734;2024-02-14T13:37:11;9.65;;;3.67;;
72422;SDS011;71399;54.146;38.734;2024-02-14T13:39:37;6.82;;;3.22;;
72422;SDS011;71399;54.146;38.734;2024-02-14T13:42:04;7.13;;;3.65;;
72422;SDS011;71399;54.146;38.734;2024-02-14T13:44:31;10.80;;;4.18;;
72422;SDS011;71399;54.146;38.734;2024-02-14T13:46:57;7.20;;;3.40;;
72422;SDS011;71399;54.146;38.734;2024-02-14T13:49:24;9.52;;;3.92;;
72422;SDS011;71399;54.146;38.734;2024-02-14T13:51:51;8.10;;;3.58;;
72422;SDS011;71399;54.146;38.734;2024-02-14T13:54:18;10.27;;;3.95;;
72422;SDS011;71399;54.146;38.734;2024-02-14T13:56:51;8.52;;;3.33;;
72422;SDS011;71399;54.146;38.734;2024-02-14T13:59:17;8.15;;;3.22;;
72422;SDS011;71399;54.146;38.734;2024-02-14T14:01:45;13.82;;;3.65;;
72422;SDS011;71399;54.146;38.734;2024-02-14T14:04:13;11.07;;;3.33;;
72422;SDS011;71399;54.146;38.734;2024-02-14T14:06:40;6.75;;;3.20;;
72422;SDS011;71399;54.146;38.734;2024-02-14T14:09:07;6.95;;;3.40;;
72422;SDS011;71399;54.146;38.734;2024-02-14T14:11:36;10.23;;;4.28;;
72422;SDS011;71399;54.146;38.734;2024-02-14T14:14:03;8.45;;;3.60;;
72422;SDS011;71399;54.146;38.734;2024-02-14T14:16:30;9.48;;;3.85;;
72422;SDS011;71399;54.146;38.734;2024-02-14T14:18:59;6.88;;;3.33;;
72422;SDS011;71399;54.146;38.734;2024-02-14T14:21:25;7.30;;;3.00;;
72422;SDS011;71399;54.146;38.734;2024-02-14T14:23:51;9.98;;;4.53;;
72422;SDS011;71399;54.146;38.734;2024-02-14T14:26:18;9.13;;;4.60;;
72422;SDS011;71399;54.146;38.734;2024-02-14T14:28:45;8.93;;;3.60;;
72422;SDS011;71399;54.146;38.734;2024-02-14T14:31:12;5.53;;;3.22;;
72422;SDS011;71399;54.146;38.734;2024-02-14T14:33:39;10.88;;;3.65;;
72422;SDS011;71399;54.146;38.734;2024-02-14T14:36:05;9.57;;;3.97;;
72422;SDS011;71399;54.146;38.734;2024-02-14T14:38:34;10.68;;;3.28;;